createdAt,value
2022-07-26T00:01:31.910Z,100173.66
2022-07-26T00:04:53.800Z,100177.59
2022-07-26T00:08:15.146Z,100185.69
2022-07-26T00:11:38.286Z,100181.25
2022-07-26T00:15:00.595Z,100183.84
2022-07-26T00:18:22.564Z,100182.59
2022-07-26T00:21:43.810Z,100183.06
2022-07-26T00:25:09.614Z,100172.19
2022-07-26T00:28:32.566Z,100178.09
2022-07-26T00:31:53.885Z,100179.38
2022-07-26T00:35:15.719Z,100179.16
2022-07-26T00:38:38.299Z,100180.47
2022-07-26T00:41:59.655Z,100175.88
2022-07-26T00:45:22.299Z,100182.75
2022-07-26T00:48:43.401Z,100178.97
2022-07-26T00:52:06.540Z,100177.94
2022-07-26T00:55:28.651Z,100183.84
2022-07-26T00:58:50.260Z,100180.97
2022-07-26T01:02:13.310Z,100182.59
2022-07-26T01:05:37.045Z,100183.94
2022-07-26T01:08:58.094Z,100186.47
2022-07-26T01:12:19.195Z,100173.75
2022-07-26T01:15:40.217Z,100177.53
2022-07-26T01:19:03.421Z,100177.94
2022-07-26T01:22:25.976Z,100165.00
2022-07-26T01:25:48.584Z,100173.56
2022-07-26T01:29:10.635Z,100174.41
2022-07-26T01:32:32.116Z,100176.53
2022-07-26T01:35:53.834Z,100170.69
2022-07-26T01:39:17.629Z,100174.06
2022-07-26T01:42:40.914Z,100180.22
2022-07-26T01:46:02.979Z,100182.16
2022-07-26T01:49:24.302Z,100183.22
2022-07-26T01:52:46.183Z,100184.41
2022-07-26T01:56:09.077Z,100190.25
2022-07-26T01:59:30.079Z,100190.16
2022-07-26T02:02:54.634Z,100193.53
2022-07-26T02:06:16.111Z,100194.91
2022-07-26T02:09:38.157Z,100192.13
2022-07-26T02:13:02.439Z,100192.69
2022-07-26T02:16:24.941Z,100198.75
2022-07-26T02:19:46.455Z,100207.25
2022-07-26T02:23:07.827Z,100198.75
2022-07-26T02:26:29.194Z,100193.44
2022-07-26T02:29:51.858Z,100198.72
2022-07-26T02:33:13.113Z,100204.25
2022-07-26T02:36:34.921Z,100194.63
2022-07-26T02:39:56.404Z,100200.94
2022-07-26T02:43:17.549Z,100205.59
2022-07-26T02:46:40.511Z,100205.31
2022-07-26T02:50:01.759Z,100203.66
2022-07-26T02:53:22.776Z,100198.19
2022-07-26T02:56:44.208Z,100200.41
2022-07-26T03:00:07.290Z,100210.81
2022-07-26T03:03:29.884Z,100207.81
2022-07-26T03:06:52.216Z,100219.84
2022-07-26T03:10:13.303Z,100219.59
2022-07-26T03:13:35.004Z,100220.88
2022-07-26T03:16:56.319Z,100214.34
2022-07-26T03:20:18.833Z,100217.97
2022-07-26T03:23:40.270Z,100215.16
2022-07-26T03:27:02.127Z,100217.66
2022-07-26T03:30:24.735Z,100216.56
2022-07-26T03:33:47.707Z,100233.28
2022-07-26T03:37:10.228Z,100226.44
2022-07-26T03:40:31.725Z,100223.69
2022-07-26T03:43:52.741Z,100219.59
2022-07-26T03:47:15.191Z,100233.53
2022-07-26T03:50:36.886Z,100233.25
2022-07-26T03:53:59.801Z,100234.09
2022-07-26T03:57:21.098Z,100240.44
2022-07-26T04:00:42.293Z,100233.56
2022-07-26T04:04:04.948Z,100231.09
2022-07-26T04:07:27.341Z,100231.91
2022-07-26T04:10:51.203Z,100229.44
2022-07-26T04:14:13.310Z,100235.47
2022-07-26T04:17:38.616Z,100231.09
2022-07-26T04:21:00.034Z,100233.81
2022-07-26T04:24:21.356Z,100223.97
2022-07-26T04:27:48.789Z,100230.84
2022-07-26T04:31:11.053Z,100227.78
2022-07-26T04:34:32.925Z,100229.72
2022-07-26T04:37:54.439Z,100216.84
2022-07-26T04:41:15.915Z,100216.28
2022-07-26T04:44:38.973Z,100221.22
2022-07-26T04:48:00.074Z,100216.56
2022-07-26T04:51:22.022Z,100221.53
2022-07-26T04:54:43.584Z,100214.38
2022-07-26T04:58:05.349Z,100220.69
2022-07-26T05:01:28.465Z,100223.41
2022-07-26T05:04:49.961Z,100224.53
2022-07-26T05:08:11.815Z,100227.81
2022-07-26T05:11:33.562Z,100230.81
2022-07-26T05:14:54.582Z,100223.97
2022-07-26T05:18:17.178Z,100217.66
2022-07-26T05:21:38.826Z,100219.59
2022-07-26T05:25:00.645Z,100222.34
2022-07-26T05:28:22.493Z,100226.94
2022-07-26T05:31:43.699Z,100229.19
2022-07-26T05:35:07.437Z,100222.88
2022-07-26T05:38:29.039Z,100228.66
2022-07-26T05:41:50.835Z,100233.81
2022-07-26T05:45:12.362Z,100233.06
2022-07-26T05:48:34.045Z,100237.03
2022-07-26T05:52:01.092Z,100233.06
2022-07-26T05:55:23.060Z,100243.00
2022-07-26T05:58:44.181Z,100239.41
2022-07-26T06:02:05.541Z,100246.53
2022-07-26T06:05:27.052Z,100240.50
2022-07-26T06:08:51.479Z,100241.50
2022-07-26T06:12:12.391Z,100244.00
2022-07-26T06:15:33.577Z,100251.69
2022-07-26T06:18:55.253Z,100241.88
2022-07-26T06:22:16.354Z,100259.63
2022-07-26T06:25:40.791Z,100258.81
2022-07-26T06:29:02.147Z,100256.56
2022-07-26T06:32:23.696Z,100261.34
2022-07-26T06:35:44.716Z,100253.81
2022-07-26T06:39:06.275Z,100263.81
2022-07-26T06:42:29.066Z,100260.63
2022-07-26T06:45:50.834Z,100272.78
2022-07-26T06:49:12.449Z,100261.69
2022-07-26T06:52:33.816Z,100260.94
2022-07-26T06:55:55.554Z,100275.03
2022-07-26T06:59:17.994Z,100275.16
2022-07-26T07:02:40.103Z,100292.09
2022-07-26T07:06:01.299Z,100284.78
2022-07-26T07:09:24.071Z,100281.22
2022-07-26T07:12:46.882Z,100291.38
2022-07-26T07:16:10.063Z,100293.00
2022-07-26T07:19:31.763Z,100279.00
2022-07-26T07:22:52.778Z,100296.47
2022-07-26T07:26:13.797Z,100286.13
2022-07-26T07:29:35.276Z,100283.63
2022-07-26T07:32:58.123Z,100291.78
2022-07-26T07:36:20.702Z,100300.28
2022-07-26T07:39:41.891Z,100302.53
2022-07-26T07:43:04.691Z,100301.16
2022-07-26T07:46:26.441Z,100293.00
2022-07-26T07:49:49.001Z,100300.25
2022-07-26T07:53:10.140Z,100303.56
2022-07-26T07:56:32.363Z,100322.00
2022-07-26T07:59:53.628Z,100303.41
2022-07-26T08:03:18.659Z,100306.75
2022-07-26T08:06:43.209Z,100312.03
2022-07-26T08:10:12.858Z,100310.72
2022-07-26T08:13:36.052Z,100319.22
2022-07-26T08:16:59.013Z,100320.28
2022-07-26T08:20:23.706Z,100307.84
2022-07-26T08:23:48.176Z,100326.59
2022-07-26T08:27:09.571Z,100314.13
2022-07-26T08:30:31.300Z,100318.19
2022-07-26T08:33:53.813Z,100317.94
2022-07-26T08:37:17.760Z,100311.97
2022-07-26T08:40:41.159Z,100311.78
2022-07-26T08:44:07.036Z,100322.72
2022-07-26T08:47:37.681Z,100330.94
2022-07-26T08:51:10.987Z,100320.50
2022-07-26T08:54:32.644Z,100319.25
2022-07-26T08:57:55.670Z,100335.47
2022-07-26T09:01:18.970Z,100334.75
2022-07-26T09:04:44.760Z,100342.47
2022-07-26T09:08:24.375Z,100348.28
2022-07-26T09:11:45.287Z,100348.16
2022-07-26T09:15:20.112Z,100355.88
2022-07-26T09:18:41.586Z,100345.31
2022-07-26T09:22:10.464Z,100357.22
2022-07-26T09:25:34.253Z,100362.69
2022-07-26T09:29:11.004Z,100358.22
2022-07-26T09:32:34.228Z,100386.81
2022-07-26T09:36:03.418Z,100400.00
2022-07-26T09:39:34.062Z,100401.00
2022-07-26T09:42:57.833Z,100395.22
2022-07-26T09:46:22.559Z,100400.63
2022-07-26T09:49:45.678Z,100393.44
2022-07-26T09:53:08.970Z,100395.16
2022-07-26T09:56:43.615Z,100399.44
2022-07-26T10:00:07.779Z,100398.66
2022-07-26T10:03:33.426Z,100418.91
2022-07-26T10:06:58.772Z,100421.09
2022-07-26T10:10:24.879Z,100429.91
2022-07-26T10:24:43.643Z,100444.63
2022-07-26T10:29:07.416Z,100447.72
2022-07-26T10:48:18.966Z,100485.88
2022-07-26T10:52:23.553Z,100484.53
2022-07-26T10:56:41.897Z,100490.66
2022-07-26T11:01:04.438Z,100493.16
2022-07-26T11:18:13.730Z,100494.13
2022-07-26T11:21:36.378Z,100495.25
2022-07-26T11:24:57.399Z,100501.00
2022-07-26T11:28:18.491Z,100506.16
2022-07-26T11:31:50.582Z,100515.50
2022-07-26T11:35:30.020Z,100510.56
2022-07-26T11:38:54.724Z,100517.19
2022-07-26T11:42:19.462Z,100521.28
2022-07-26T11:45:44.088Z,100525.97
2022-07-26T11:49:13.654Z,100538.03
2022-07-26T11:52:35.175Z,100546.81
2022-07-26T11:56:10.995Z,100535.56
2022-07-26T11:59:34.096Z,100543.44
2022-07-26T12:02:56.131Z,100536.59
2022-07-26T12:06:19.106Z,100528.78
2022-07-26T12:09:48.165Z,100535.50
2022-07-26T12:13:14.350Z,100539.38
2022-07-26T12:16:40.885Z,100534.44
2022-07-26T12:20:11.803Z,100547.06
2022-07-26T12:23:42.321Z,100535.00
2022-07-26T12:27:08.695Z,100538.59
2022-07-26T12:30:36.710Z,100546.03
2022-07-26T12:33:58.779Z,100546.84
2022-07-26T12:37:20.395Z,100551.47
2022-07-26T12:40:43.404Z,100554.16
2022-07-26T12:44:05.591Z,100555.28
2022-07-26T12:47:28.881Z,100554.94
2022-07-26T12:50:50.106Z,100556.91
2022-07-26T12:54:12.509Z,100544.63
2022-07-26T12:57:34.152Z,100549.50
2022-07-26T13:00:58.756Z,100547.88
2022-07-26T13:04:21.689Z,100546.72
2022-07-26T13:07:43.584Z,100545.50
2022-07-26T13:11:04.739Z,100549.00
2022-07-26T13:14:25.960Z,100560.69
2022-07-26T13:17:47.000Z,100569.88
2022-07-26T13:21:09.448Z,100560.09
2022-07-26T13:24:31.575Z,100554.13
2022-07-26T13:27:53.836Z,100564.91
2022-07-26T13:31:16.315Z,100563.72
2022-07-26T13:34:37.769Z,100559.47
2022-07-26T13:38:00.085Z,100558.03
2022-07-26T13:41:21.102Z,100567.91
2022-07-26T13:44:42.638Z,100573.38
2022-07-26T13:48:04.266Z,100571.50
2022-07-26T13:51:46.863Z,100572.38
2022-07-26T13:55:10.424Z,100573.44
2022-07-26T13:58:32.546Z,100578.09
2022-07-26T14:01:55.350Z,100574.78
2022-07-26T14:05:16.747Z,100578.31
2022-07-26T14:08:37.773Z,100581.63
2022-07-26T14:12:01.345Z,100584.16
2022-07-26T14:15:23.570Z,100590.03
2022-07-26T14:18:45.100Z,100589.03
2022-07-26T14:22:08.086Z,100597.72
2022-07-26T14:25:30.258Z,100585.03
2022-07-26T14:28:56.440Z,100588.53
2022-07-26T14:32:21.805Z,100584.03
2022-07-26T14:35:44.824Z,100591.88
2022-07-26T14:39:06.240Z,100588.91
2022-07-26T14:42:27.545Z,100594.44
2022-07-26T14:45:50.423Z,100595.91
2022-07-26T14:49:12.189Z,100602.59
2022-07-26T14:52:33.950Z,100595.44
2022-07-26T14:55:55.502Z,100606.41
2022-07-26T14:59:16.917Z,100597.88
2022-07-26T15:02:41.203Z,100599.81
2022-07-26T15:06:02.945Z,100607.97
2022-07-26T15:09:23.876Z,100606.38
2022-07-26T15:12:45.390Z,100612.13
2022-07-26T15:16:06.957Z,100614.59
2022-07-26T15:19:33.218Z,100604.09
2022-07-26T15:22:56.929Z,100601.69
2022-07-26T15:26:18.551Z,100615.13
2022-07-26T15:29:40.110Z,100618.19
2022-07-26T15:33:04.511Z,100609.44
2022-07-26T15:36:27.344Z,100611.25
2022-07-26T15:39:49.767Z,100602.09
2022-07-26T15:43:13.204Z,100608.09
2022-07-26T15:46:37.341Z,100615.28
2022-07-26T15:49:59.878Z,100613.06
2022-07-26T15:53:25.431Z,100612.13
2022-07-26T15:56:48.266Z,100609.53
2022-07-26T16:00:12.256Z,100609.88
2022-07-26T16:03:36.203Z,100614.19
2022-07-26T16:06:59.293Z,100606.09
2022-07-26T16:10:22.390Z,100607.34
2022-07-26T16:13:44.108Z,100607.19
2022-07-26T16:17:05.324Z,100610.16
2022-07-26T16:20:26.585Z,100622.00
2022-07-26T16:23:48.281Z,100619.53
2022-07-26T16:27:11.197Z,100616.28
2022-07-26T16:30:33.024Z,100618.50
2022-07-26T16:33:54.911Z,100605.59
2022-07-26T16:37:16.182Z,100626.47
2022-07-26T16:40:37.298Z,100612.16
2022-07-26T16:44:01.933Z,100618.50
2022-07-26T16:47:23.987Z,100628.94
2022-07-26T16:50:46.402Z,100624.56
2022-07-26T16:54:07.488Z,100630.31
2022-07-26T16:57:29.142Z,100626.19
2022-07-26T17:00:52.068Z,100635.53
2022-07-26T17:04:16.543Z,100639.63
2022-07-26T17:07:38.316Z,100638.25
2022-07-26T17:11:00.041Z,100637.19
2022-07-26T17:14:21.901Z,100633.63
2022-07-26T17:17:48.517Z,100644.88
2022-07-26T17:21:11.726Z,100646.56
2022-07-26T17:24:33.803Z,100645.41
2022-07-26T17:27:56.206Z,100645.16
2022-07-26T17:31:17.671Z,100644.34
2022-07-26T17:34:41.928Z,100646.25
2022-07-26T17:38:07.394Z,100643.78
2022-07-26T17:41:33.012Z,100652.28
2022-07-26T17:44:56.340Z,100653.66
2022-07-26T17:48:24.877Z,100659.16
2022-07-26T17:51:55.654Z,100652.03
2022-07-26T17:55:18.286Z,100652.41
2022-07-26T17:58:42.439Z,100656.78
2022-07-26T18:02:04.834Z,100651.34
2022-07-26T18:05:33.947Z,100644.13
2022-07-26T18:08:58.409Z,100654.63
2022-07-26T18:12:21.044Z,100654.88
2022-07-26T18:15:43.131Z,100658.38
2022-07-26T18:19:04.972Z,100660.38
2022-07-26T18:22:27.423Z,100664.53
2022-07-26T18:25:50.325Z,100658.16
2022-07-26T18:29:12.884Z,100658.69
2022-07-26T18:32:35.065Z,100662.50
2022-07-26T18:36:00.849Z,100670.84
2022-07-26T18:39:23.184Z,100670.63
2022-07-26T18:42:45.916Z,100674.16
2022-07-26T18:46:09.407Z,100681.47
2022-07-26T18:49:32.443Z,100679.75
2022-07-26T18:52:54.160Z,100684.97
2022-07-26T18:56:15.764Z,100684.44
2022-07-26T18:59:39.646Z,100687.38
2022-07-26T19:03:01.153Z,100689.78
2022-07-26T19:06:26.708Z,100699.44
2022-07-26T19:09:49.289Z,100696.28
2022-07-26T19:13:12.914Z,100707.03
2022-07-26T19:16:36.793Z,100709.69
2022-07-26T19:19:58.482Z,100704.06
2022-07-26T19:23:20.171Z,100707.75
2022-07-26T19:26:48.128Z,100714.56
2022-07-26T19:30:16.569Z,100713.44
2022-07-26T19:33:40.062Z,100714.63
2022-07-26T19:37:01.689Z,100717.63
2022-07-26T19:40:23.982Z,100721.88
2022-07-26T19:43:45.561Z,100728.09
2022-07-26T19:47:06.600Z,100731.94
2022-07-26T19:50:35.310Z,100728.47
2022-07-26T19:54:00.829Z,100730.50
2022-07-26T19:57:29.469Z,100734.41
2022-07-26T20:00:51.122Z,100733.66
2022-07-26T20:04:12.602Z,100743.13
2022-07-26T20:07:37.261Z,100737.84
2022-07-26T20:10:59.279Z,100739.53
2022-07-26T20:14:22.895Z,100747.06
2022-07-26T20:17:44.318Z,100727.50
2022-07-26T20:21:05.848Z,100738.84
2022-07-26T20:24:28.664Z,100736.88
2022-07-26T20:27:51.460Z,100736.00
2022-07-26T20:31:15.784Z,100739.59
2022-07-26T20:34:37.270Z,100746.13
2022-07-26T20:38:18.137Z,100745.97
2022-07-26T20:41:45.815Z,100751.03
2022-07-26T20:45:11.156Z,100761.19
2022-07-26T20:48:33.874Z,100758.22
2022-07-26T20:51:55.052Z,100770.16
2022-07-26T20:55:18.829Z,100777.03
2022-07-26T20:58:43.286Z,100783.47
2022-07-26T21:02:06.085Z,100776.72
2022-07-26T21:05:32.159Z,100782.50
2022-07-26T21:08:53.562Z,100775.94
2022-07-26T21:12:21.637Z,100785.41
2022-07-26T21:15:44.017Z,100797.69
2022-07-26T21:19:06.327Z,100800.09
2022-07-26T21:22:29.700Z,100803.31
2022-07-26T21:25:57.902Z,100806.25
2022-07-26T21:29:22.057Z,100807.28
2022-07-26T21:32:45.607Z,100807.38
2022-07-26T21:36:07.111Z,100818.28
2022-07-26T21:39:28.418Z,100815.09
2022-07-26T21:42:52.005Z,100817.75
2022-07-26T21:46:13.891Z,100832.06
2022-07-26T21:49:38.659Z,100825.47
2022-07-26T21:53:01.110Z,100839.94
2022-07-26T21:56:22.551Z,100835.88
2022-07-26T21:59:43.714Z,100843.13
2022-07-26T22:03:05.193Z,100854.28
2022-07-26T22:06:27.379Z,100844.19
2022-07-26T22:09:49.421Z,100853.69
2022-07-26T22:13:10.985Z,100841.38
2022-07-26T22:16:32.158Z,100842.19
2022-07-26T22:19:53.377Z,100840.03
2022-07-26T22:23:19.961Z,100848.66
2022-07-26T22:26:42.845Z,100855.09
2022-07-26T22:30:05.046Z,100846.06
2022-07-26T22:33:26.674Z,100839.28
2022-07-26T22:36:48.299Z,100850.34
2022-07-26T22:40:13.112Z,100848.22
2022-07-26T22:43:35.265Z,100847.56
2022-07-26T22:46:56.731Z,100842.53
2022-07-26T22:50:18.732Z,100843.03
2022-07-26T22:53:40.303Z,100853.28
2022-07-26T22:57:02.954Z,100846.31
2022-07-26T23:00:24.265Z,100851.16
2022-07-26T23:03:49.797Z,100842.16
2022-07-26T23:07:11.999Z,100853.34
2022-07-26T23:10:33.961Z,100844.44
2022-07-26T23:13:58.774Z,100840.22
2022-07-26T23:17:20.944Z,100845.03
2022-07-26T23:20:43.108Z,100847.16
2022-07-26T23:24:04.377Z,100842.63
2022-07-26T23:27:25.787Z,100851.16
2022-07-26T23:30:48.192Z,100847.38
2022-07-26T23:34:09.357Z,100853.88
2022-07-26T23:37:30.827Z,100857.06
2022-07-26T23:40:52.423Z,100857.16
2022-07-26T23:44:13.978Z,100859.41
2022-07-26T23:47:36.874Z,100850.41
2022-07-26T23:50:58.092Z,100851.53
2022-07-26T23:54:19.481Z,100846.78
2022-07-26T23:57:41.313Z,100846.91
